sensor_id;sensor_type;location;lat;lon;timestamp;P1;durP1;ratioP1;P2;durP2;ratioP2
58242;SDS011;50118;53.232;8.252;2022-09-09T00:05:32;17.80;;;11.50;;
58242;SDS011;50118;53.232;8.252;2022-09-09T00:07:41;13.52;;;10.38;;
58242;SDS011;50118;53.232;8.252;2022-09-09T00:12:53;15.50;;;10.95;;
58242;SDS011;50118;53.232;8.252;2022-09-09T00:15:28;14.93;;;10.30;;
58242;SDS011;50118;53.232;8.252;2022-09-09T00:21:13;17.00;;;11.80;;
58242;SDS011;50118;53.232;8.252;2022-09-09T00:23:44;17.65;;;11.73;;
58242;SDS011;50118;53.232;8.252;2022-09-09T00:35:33;15.63;;;11.35;;
58242;SDS011;50118;53.232;8.252;2022-09-09T00:38:12;14.10;;;11.05;;
58242;SDS011;50118;53.232;8.252;2022-09-09T00:43:57;12.20;;;9.50;;
58242;SDS011;50118;53.232;8.252;2022-09-09T00:52:51;17.38;;;12.70;;
58242;SDS011;50118;53.232;8.252;2022-09-09T00:56:13;13.30;;;10.07;;
58242;SDS011;50118;53.232;8.252;2022-09-09T00:58:47;15.75;;;11.68;;
58242;SDS011;50118;53.232;8.252;2022-09-09T01:02:03;18.73;;;12.75;;
58242;SDS011;50118;53.232;8.252;2022-09-09T01:04:38;15.85;;;11.38;;
58242;SDS011;50118;53.232;8.252;2022-09-09T01:07:11;15.57;;;11.55;;
58242;SDS011;50118;53.232;8.252;2022-09-09T01:13:08;17.60;;;11.88;;
58242;SDS011;50118;53.232;8.252;2022-09-09T01:15:40;16.52;;;12.30;;
58242;SDS011;50118;53.232;8.252;2022-09-09T01:18:28;15.18;;;11.13;;
58242;SDS011;50118;53.232;8.252;2022-09-09T01:26:27;14.55;;;10.55;;
58242;SDS011;50118;53.232;8.252;2022-09-09T01:29:23;16.25;;;12.05;;
58242;SDS011;50118;53.232;8.252;2022-09-09T01:31:59;14.88;;;10.45;;
58242;SDS011;50118;53.232;8.252;2022-09-09T01:34:29;17.15;;;11.85;;
58242;SDS011;50118;53.232;8.252;2022-09-09T01:37:03;17.90;;;12.10;;
58242;SDS011;50118;53.232;8.252;2022-09-09T01:39:33;17.50;;;12.95;;
58242;SDS011;50118;53.232;8.252;2022-09-09T01:42:00;15.32;;;11.40;;
58242;SDS011;50118;53.232;8.252;2022-09-09T01:44:27;14.60;;;11.07;;
58242;SDS011;50118;53.232;8.252;2022-09-09T01:46:55;15.98;;;11.20;;
58242;SDS011;50118;53.232;8.252;2022-09-09T01:52:37;15.05;;;10.35;;
58242;SDS011;50118;53.232;8.252;2022-09-09T02:03:47;17.70;;;12.25;;
58242;SDS011;50118;53.232;8.252;2022-09-09T02:06:37;14.77;;;11.82;;
58242;SDS011;50118;53.232;8.252;2022-09-09T02:09:06;16.25;;;11.48;;
58242;SDS011;50118;53.232;8.252;2022-09-09T02:11:35;18.35;;;12.25;;
58242;SDS011;50118;53.232;8.252;2022-09-09T02:17:33;20.38;;;13.88;;
58242;SDS011;50118;53.232;8.252;2022-09-09T02:20:05;18.70;;;13.03;;
58242;SDS011;50118;53.232;8.252;2022-09-09T02:22:33;17.75;;;12.35;;
58242;SDS011;50118;53.232;8.252;2022-09-09T02:25:05;16.60;;;11.63;;
58242;SDS011;50118;53.232;8.252;2022-09-09T02:27:39;16.10;;;12.20;;
58242;SDS011;50118;53.232;8.252;2022-09-09T02:30:08;19.60;;;12.53;;
58242;SDS011;50118;53.232;8.252;2022-09-09T02:32:43;17.83;;;12.02;;
58242;SDS011;50118;53.232;8.252;2022-09-09T02:35:13;18.48;;;12.82;;
58242;SDS011;50118;53.232;8.252;2022-09-09T02:37:42;17.60;;;11.95;;
58242;SDS011;50118;53.232;8.252;2022-09-09T02:43:37;18.02;;;12.18;;
58242;SDS011;50118;53.232;8.252;2022-09-09T02:49:11;22.20;;;13.35;;
58242;SDS011;50118;53.232;8.252;2022-09-09T02:51:53;21.95;;;14.00;;
58242;SDS011;50118;53.232;8.252;2022-09-09T02:54:32;18.33;;;12.10;;
58242;SDS011;50118;53.232;8.252;2022-09-09T02:57:11;18.27;;;12.63;;
58242;SDS011;50118;53.232;8.252;2022-09-09T02:59:41;23.02;;;15.07;;
58242;SDS011;50118;53.232;8.252;2022-09-09T03:05:10;22.67;;;15.55;;
58242;SDS011;50118;53.232;8.252;2022-09-09T03:07:38;26.38;;;17.67;;
58242;SDS011;50118;53.232;8.252;2022-09-09T03:10:05;20.83;;;14.52;;
58242;SDS011;50118;53.232;8.252;2022-09-09T03:12:31;19.67;;;13.48;;
58242;SDS011;50118;53.232;8.252;2022-09-09T03:14:58;19.75;;;12.43;;
58242;SDS011;50118;53.232;8.252;2022-09-09T03:17:24;17.77;;;12.02;;
58242;SDS011;50118;53.232;8.252;2022-09-09T03:19:50;18.63;;;13.15;;
58242;SDS011;50118;53.232;8.252;2022-09-09T03:22:35;19.33;;;13.38;;
58242;SDS011;50118;53.232;8.252;2022-09-09T03:25:01;18.60;;;12.88;;
58242;SDS011;50118;53.232;8.252;2022-09-09T03:27:28;20.90;;;13.43;;
58242;SDS011;50118;53.232;8.252;2022-09-09T03:30:41;23.20;;;16.13;;
58242;SDS011;50118;53.232;8.252;2022-09-09T03:32:52;25.00;;;15.05;;
58242;SDS011;50118;53.232;8.252;2022-09-09T03:35:18;24.73;;;15.80;;
58242;SDS011;50118;53.232;8.252;2022-09-09T03:37:47;25.95;;;16.77;;
58242;SDS011;50118;53.232;8.252;2022-09-09T03:43:44;23.20;;;15.73;;
58242;SDS011;50118;53.232;8.252;2022-09-09T03:46:10;22.70;;;15.60;;
58242;SDS011;50118;53.232;8.252;2022-09-09T03:48:36;27.20;;;17.75;;
58242;SDS011;50118;53.232;8.252;2022-09-09T03:51:01;24.75;;;15.55;;
58242;SDS011;50118;53.232;8.252;2022-09-09T03:53:28;25.02;;;15.82;;
58242;SDS011;50118;53.232;8.252;2022-09-09T03:55:54;20.30;;;15.18;;
58242;SDS011;50118;53.232;8.252;2022-09-09T03:58:24;20.02;;;14.05;;
58242;SDS011;50118;53.232;8.252;2022-09-09T04:00:58;23.13;;;14.85;;
58242;SDS011;50118;53.232;8.252;2022-09-09T04:03:31;22.23;;;15.73;;
58242;SDS011;50118;53.232;8.252;2022-09-09T04:05:58;23.27;;;15.25;;
58242;SDS011;50118;53.232;8.252;2022-09-09T04:08:24;22.45;;;14.95;;
58242;SDS011;50118;53.232;8.252;2022-09-09T04:10:51;20.85;;;14.93;;
58242;SDS011;50118;53.232;8.252;2022-09-09T04:13:17;22.45;;;15.55;;
58242;SDS011;50118;53.232;8.252;2022-09-09T04:15:49;21.52;;;15.30;;
58242;SDS011;50118;53.232;8.252;2022-09-09T04:18:16;22.48;;;16.10;;
58242;SDS011;50118;53.232;8.252;2022-09-09T04:20:41;21.10;;;15.02;;
58242;SDS011;50118;53.232;8.252;2022-09-09T04:23:08;21.10;;;15.00;;
58242;SDS011;50118;53.232;8.252;2022-09-09T04:25:34;23.30;;;15.52;;
58242;SDS011;50118;53.232;8.252;2022-09-09T04:27:59;18.75;;;13.88;;
58242;SDS011;50118;53.232;8.252;2022-09-09T04:30:25;21.42;;;14.30;;
58242;SDS011;50118;53.232;8.252;2022-09-09T04:32:52;21.25;;;14.43;;
58242;SDS011;50118;53.232;8.252;2022-09-09T04:35:17;20.88;;;14.25;;
58242;SDS011;50118;53.232;8.252;2022-09-09T04:37:45;19.10;;;13.63;;
58242;SDS011;50118;53.232;8.252;2022-09-09T04:40:11;18.98;;;13.30;;
58242;SDS011;50118;53.232;8.252;2022-09-09T04:42:37;19.45;;;14.75;;
58242;SDS011;50118;53.232;8.252;2022-09-09T04:45:04;20.73;;;14.13;;
58242;SDS011;50118;53.232;8.252;2022-09-09T04:47:38;19.60;;;13.48;;
58242;SDS011;50118;53.232;8.252;2022-09-09T04:50:04;18.65;;;13.85;;
58242;SDS011;50118;53.232;8.252;2022-09-09T04:52:30;18.48;;;13.52;;
58242;SDS011;50118;53.232;8.252;2022-09-09T04:58:08;17.40;;;13.48;;
58242;SDS011;50118;53.232;8.252;2022-09-09T05:00:49;18.45;;;14.23;;
58242;SDS011;50118;53.232;8.252;2022-09-09T05:03:15;17.92;;;13.90;;
58242;SDS011;50118;53.232;8.252;2022-09-09T05:05:41;21.25;;;15.05;;
58242;SDS011;50118;53.232;8.252;2022-09-09T05:08:07;18.23;;;14.20;;
58242;SDS011;50118;53.232;8.252;2022-09-09T05:10:34;20.15;;;14.18;;
58242;SDS011;50118;53.232;8.252;2022-09-09T05:13:04;19.00;;;13.68;;
58242;SDS011;50118;53.232;8.252;2022-09-09T05:15:31;20.63;;;13.65;;
58242;SDS011;50118;53.232;8.252;2022-09-09T05:18:00;21.75;;;13.25;;
58242;SDS011;50118;53.232;8.252;2022-09-09T05:20:27;17.38;;;12.30;;
58242;SDS011;50118;53.232;8.252;2022-09-09T05:22:53;18.90;;;13.73;;
58242;SDS011;50118;53.232;8.252;2022-09-09T05:25:20;18.27;;;12.77;;
58242;SDS011;50118;53.232;8.252;2022-09-09T05:27:47;21.25;;;13.68;;
58242;SDS011;50118;53.232;8.252;2022-09-09T05:30:33;20.10;;;13.48;;
58242;SDS011;50118;53.232;8.252;2022-09-09T05:32:59;19.48;;;13.60;;
58242;SDS011;50118;53.232;8.252;2022-09-09T05:35:25;18.00;;;13.00;;
58242;SDS011;50118;53.232;8.252;2022-09-09T05:37:51;19.67;;;12.07;;
58242;SDS011;50118;53.232;8.252;2022-09-09T05:40:16;16.42;;;12.30;;
58242;SDS011;50118;53.232;8.252;2022-09-09T05:42:41;15.73;;;12.10;;
58242;SDS011;50118;53.232;8.252;2022-09-09T05:45:07;15.85;;;12.20;;
58242;SDS011;50118;53.232;8.252;2022-09-09T05:47:34;17.77;;;12.32;;
58242;SDS011;50118;53.232;8.252;2022-09-09T05:50:02;16.67;;;12.35;;
58242;SDS011;50118;53.232;8.252;2022-09-09T05:52:28;17.25;;;12.65;;
58242;SDS011;50118;53.232;8.252;2022-09-09T05:54:54;15.48;;;11.68;;
58242;SDS011;50118;53.232;8.252;2022-09-09T05:57:21;15.13;;;11.68;;
58242;SDS011;50118;53.232;8.252;2022-09-09T05:59:47;15.15;;;11.00;;
58242;SDS011;50118;53.232;8.252;2022-09-09T06:02:13;16.50;;;10.85;;
58242;SDS011;50118;53.232;8.252;2022-09-09T06:04:39;16.35;;;10.50;;
58242;SDS011;50118;53.232;8.252;2022-09-09T06:07:05;12.02;;;9.77;;
58242;SDS011;50118;53.232;8.252;2022-09-09T06:09:31;15.73;;;9.73;;
58242;SDS011;50118;53.232;8.252;2022-09-09T06:11:59;11.93;;;8.85;;
58242;SDS011;50118;53.232;8.252;2022-09-09T06:14:25;13.32;;;8.57;;
58242;SDS011;50118;53.232;8.252;2022-09-09T06:16:51;11.88;;;8.88;;
58242;SDS011;50118;53.232;8.252;2022-09-09T06:19:17;12.80;;;8.20;;
58242;SDS011;50118;53.232;8.252;2022-09-09T06:21:43;9.43;;;6.72;;
58242;SDS011;50118;53.232;8.252;2022-09-09T06:24:09;9.05;;;5.90;;
58242;SDS011;50118;53.232;8.252;2022-09-09T06:30:56;8.00;;;5.15;;
58242;SDS011;50118;53.232;8.252;2022-09-09T06:36:38;9.63;;;5.57;;
58242;SDS011;50118;53.232;8.252;2022-09-09T06:39:04;8.43;;;5.30;;
58242;SDS011;50118;53.232;8.252;2022-09-09T06:41:40;9.70;;;5.40;;
58242;SDS011;50118;53.232;8.252;2022-09-09T06:44:07;8.82;;;5.25;;
58242;SDS011;50118;53.232;8.252;2022-09-09T06:47:01;8.45;;;5.05;;
58242;SDS011;50118;53.232;8.252;2022-09-09T06:49:27;7.25;;;5.40;;
58242;SDS011;50118;53.232;8.252;2022-09-09T06:54:57;8.35;;;5.05;;
58242;SDS011;50118;53.232;8.252;2022-09-09T06:57:26;8.75;;;5.30;;
58242;SDS011;50118;53.232;8.252;2022-09-09T06:59:52;7.07;;;5.10;;
58242;SDS011;50118;53.232;8.252;2022-09-09T07:05:16;6.38;;;4.75;;
58242;SDS011;50118;53.232;8.252;2022-09-09T07:07:41;9.00;;;5.07;;
58242;SDS011;50118;53.232;8.252;2022-09-09T07:10:08;8.05;;;5.38;;
58242;SDS011;50118;53.232;8.252;2022-09-09T07:12:33;9.13;;;5.60;;
58242;SDS011;50118;53.232;8.252;2022-09-09T07:14:59;8.23;;;5.78;;
58242;SDS011;50118;53.232;8.252;2022-09-09T07:17:25;7.80;;;5.40;;
58242;SDS011;50118;53.232;8.252;2022-09-09T07:19:53;7.13;;;5.57;;
58242;SDS011;50118;53.232;8.252;2022-09-09T07:22:39;8.77;;;5.88;;
58242;SDS011;50118;53.232;8.252;2022-09-09T07:25:04;8.55;;;6.20;;
58242;SDS011;50118;53.232;8.252;2022-09-09T07:31:08;7.78;;;5.82;;
58242;SDS011;50118;53.232;8.252;2022-09-09T07:33:48;8.38;;;5.60;;
58242;SDS011;50118;53.232;8.252;2022-09-09T07:45:37;8.23;;;5.05;;
58242;SDS011;50118;53.232;8.252;2022-09-09T07:48:05;9.55;;;5.40;;
58242;SDS011;50118;53.232;8.252;2022-09-09T07:53:13;9.40;;;5.68;;
58242;SDS011;50118;53.232;8.252;2022-09-09T07:55:51;9.52;;;5.47;;
58242;SDS011;50118;53.232;8.252;2022-09-09T07:58:36;9.25;;;5.68;;
58242;SDS011;50118;53.232;8.252;2022-09-09T08:01:09;10.13;;;5.70;;
58242;SDS011;50118;53.232;8.252;2022-09-09T08:03:46;9.48;;;6.53;;
58242;SDS011;50118;53.232;8.252;2022-09-09T08:06:17;8.18;;;5.85;;
58242;SDS011;50118;53.232;8.252;2022-09-09T08:08:43;11.48;;;6.05;;
58242;SDS011;50118;53.232;8.252;2022-09-09T08:11:11;10.52;;;6.18;;
58242;SDS011;50118;53.232;8.252;2022-09-09T08:13:39;8.20;;;5.85;;
58242;SDS011;50118;53.232;8.252;2022-09-09T08:16:10;8.35;;;5.47;;
58242;SDS011;50118;53.232;8.252;2022-09-09T08:18:37;9.70;;;5.88;;
58242;SDS011;50118;53.232;8.252;2022-09-09T08:21:07;10.70;;;6.40;;
58242;SDS011;50118;53.232;8.252;2022-09-09T08:23:33;9.18;;;5.60;;
58242;SDS011;50118;53.232;8.252;2022-09-09T08:26:06;7.47;;;5.32;;
58242;SDS011;50118;53.232;8.252;2022-09-09T08:28:35;8.70;;;5.60;;
58242;SDS011;50118;53.232;8.252;2022-09-09T08:31:11;6.97;;;5.35;;
58242;SDS011;50118;53.232;8.252;2022-09-09T08:33:38;9.07;;;5.70;;
58242;SDS011;50118;53.232;8.252;2022-09-09T08:36:05;8.50;;;5.43;;
58242;SDS011;50118;53.232;8.252;2022-09-09T08:38:32;7.40;;;5.57;;
58242;SDS011;50118;53.232;8.252;2022-09-09T08:41:03;8.27;;;5.72;;
58242;SDS011;50118;53.232;8.252;2022-09-09T08:43:48;9.07;;;5.10;;
58242;SDS011;50118;53.232;8.252;2022-09-09T08:49:24;8.23;;;5.10;;
58242;SDS011;50118;53.232;8.252;2022-09-09T08:51:47;6.53;;;4.22;;
58242;SDS011;50118;53.232;8.252;2022-09-09T08:54:14;6.78;;;4.53;;
58242;SDS011;50118;53.232;8.252;2022-09-09T08:56:40;6.70;;;4.55;;
58242;SDS011;50118;53.232;8.252;2022-09-09T08:59:07;9.15;;;5.07;;
58242;SDS011;50118;53.232;8.252;2022-09-09T09:07:49;7.68;;;4.40;;
58242;SDS011;50118;53.232;8.252;2022-09-09T09:12:54;7.65;;;4.57;;
58242;SDS011;50118;53.232;8.252;2022-09-09T09:15:23;6.40;;;4.40;;
58242;SDS011;50118;53.232;8.252;2022-09-09T09:17:51;6.05;;;4.55;;
58242;SDS011;50118;53.232;8.252;2022-09-09T09:20:18;9.25;;;5.50;;
58242;SDS011;50118;53.232;8.252;2022-09-09T09:22:55;9.05;;;5.22;;
58242;SDS011;50118;53.232;8.252;2022-09-09T09:25:34;7.55;;;4.00;;
58242;SDS011;50118;53.232;8.252;2022-09-09T09:33:22;6.95;;;3.22;;
58242;SDS011;50118;53.232;8.252;2022-09-09T09:35:58;6.50;;;2.53;;
58242;SDS011;50118;53.232;8.252;2022-09-09T09:38:25;4.43;;;2.38;;
58242;SDS011;50118;53.232;8.252;2022-09-09T09:40:53;6.18;;;2.60;;
58242;SDS011;50118;53.232;8.252;2022-09-09T09:43:33;4.65;;;2.50;;
58242;SDS011;50118;53.232;8.252;2022-09-09T09:46:00;5.75;;;2.97;;
58242;SDS011;50118;53.232;8.252;2022-09-09T09:48:28;4.53;;;2.85;;
58242;SDS011;50118;53.232;8.252;2022-09-09T09:50:58;5.35;;;2.70;;
58242;SDS011;50118;53.232;8.252;2022-09-09T09:53:27;7.05;;;2.90;;
58242;SDS011;50118;53.232;8.252;2022-09-09T09:55:59;7.32;;;3.10;;
58242;SDS011;50118;53.232;8.252;2022-09-09T09:58:27;5.05;;;2.70;;
58242;SDS011;50118;53.232;8.252;2022-09-09T10:00:59;5.93;;;2.80;;
58242;SDS011;50118;53.232;8.252;2022-09-09T10:03:27;5.38;;;2.47;;
58242;SDS011;50118;53.232;8.252;2022-09-09T10:05:57;4.10;;;2.35;;
58242;SDS011;50118;53.232;8.252;2022-09-09T10:08:26;4.68;;;2.50;;
58242;SDS011;50118;53.232;8.252;2022-09-09T10:13:47;5.63;;;2.50;;
58242;SDS011;50118;53.232;8.252;2022-09-09T10:16:38;5.75;;;2.83;;
58242;SDS011;50118;53.232;8.252;2022-09-09T10:19:19;5.68;;;3.00;;
58242;SDS011;50118;53.232;8.252;2022-09-09T10:21:56;5.78;;;2.90;;
58242;SDS011;50118;53.232;8.252;2022-09-09T10:26:59;5.35;;;2.80;;
58242;SDS011;50118;53.232;8.252;2022-09-09T10:29:45;4.93;;;2.83;;
58242;SDS011;50118;53.232;8.252;2022-09-09T10:40:12;5.57;;;2.70;;
58242;SDS011;50118;53.232;8.252;2022-09-09T10:42:56;5.93;;;2.50;;
58242;SDS011;50118;53.232;8.252;2022-09-09T10:48:27;5.40;;;2.45;;
58242;SDS011;50118;53.232;8.252;2022-09-09T10:51:36;6.80;;;2.55;;
58242;SDS011;50118;53.232;8.252;2022-09-09T10:56:39;7.03;;;2.55;;
58242;SDS011;50118;53.232;8.252;2022-09-09T10:59:16;4.63;;;2.40;;
58242;SDS011;50118;53.232;8.252;2022-09-09T11:04:33;4.60;;;2.40;;
58242;SDS011;50118;53.232;8.252;2022-09-09T11:07:05;4.82;;;2.40;;
58242;SDS011;50118;53.232;8.252;2022-09-09T11:09:42;5.22;;;2.45;;
58242;SDS011;50118;53.232;8.252;2022-09-09T11:12:17;5.68;;;2.65;;
58242;SDS011;50118;53.232;8.252;2022-09-09T11:14:49;4.90;;;2.40;;
58242;SDS011;50118;53.232;8.252;2022-09-09T11:20:12;6.47;;;2.70;;
58242;SDS011;50118;53.232;8.252;2022-09-09T11:22:43;6.03;;;2.70;;
58242;SDS011;50118;53.232;8.252;2022-09-09T11:25:23;6.10;;;2.80;;
58242;SDS011;50118;53.232;8.252;2022-09-09T11:34:16;5.68;;;2.58;;
58242;SDS011;50118;53.232;8.252;2022-09-09T11:37:13;4.30;;;2.50;;
58242;SDS011;50118;53.232;8.252;2022-09-09T11:39:52;5.32;;;2.78;;
58242;SDS011;50118;53.232;8.252;2022-09-09T11:42:39;6.05;;;2.90;;
58242;SDS011;50118;53.232;8.252;2022-09-09T11:45:25;4.78;;;2.80;;
58242;SDS011;50118;53.232;8.252;2022-09-09T11:47:58;5.20;;;2.63;;
58242;SDS011;50118;53.232;8.252;2022-09-09T11:50:35;6.15;;;2.60;;
58242;SDS011;50118;53.232;8.252;2022-09-09T11:53:06;10.32;;;3.28;;
58242;SDS011;50118;53.232;8.252;2022-09-09T11:55:40;6.43;;;2.90;;
58242;SDS011;50118;53.232;8.252;2022-09-09T11:58:13;5.63;;;3.10;;
58242;SDS011;50118;53.232;8.252;2022-09-09T12:00:42;6.05;;;3.20;;
58242;SDS011;50118;53.232;8.252;2022-09-09T12:08:40;9.30;;;3.97;;
58242;SDS011;50118;53.232;8.252;2022-09-09T12:11:08;7.68;;;3.67;;
58242;SDS011;50118;53.232;8.252;2022-09-09T12:13:34;8.23;;;3.88;;
58242;SDS011;50118;53.232;8.252;2022-09-09T12:16:00;7.28;;;3.60;;
58242;SDS011;50118;53.232;8.252;2022-09-09T12:18:39;5.63;;;3.47;;
58242;SDS011;50118;53.232;8.252;2022-09-09T12:21:10;7.82;;;3.78;;
58242;SDS011;50118;53.232;8.252;2022-09-09T12:23:52;6.97;;;3.80;;
58242;SDS011;50118;53.232;8.252;2022-09-09T12:31:43;11.00;;;5.35;;
58242;SDS011;50118;53.232;8.252;2022-09-09T12:36:58;7.88;;;4.25;;
58242;SDS011;50118;53.232;8.252;2022-09-09T12:39:30;9.02;;;4.00;;
58242;SDS011;50118;53.232;8.252;2022-09-09T12:42:03;7.93;;;4.80;;
58242;SDS011;50118;53.232;8.252;2022-09-09T12:44:29;6.80;;;4.60;;
58242;SDS011;50118;53.232;8.252;2022-09-09T12:46:59;7.72;;;4.72;;
58242;SDS011;50118;53.232;8.252;2022-09-09T12:49:31;7.60;;;4.72;;
58242;SDS011;50118;53.232;8.252;2022-09-09T12:52:17;11.48;;;6.13;;
58242;SDS011;50118;53.232;8.252;2022-09-09T12:54:48;9.57;;;5.90;;
58242;SDS011;50118;53.232;8.252;2022-09-09T12:57:16;11.00;;;7.10;;
58242;SDS011;50118;53.232;8.252;2022-09-09T12:59:43;8.65;;;6.07;;
58242;SDS011;50118;53.232;8.252;2022-09-09T13:02:20;10.80;;;6.10;;
58242;SDS011;50118;53.232;8.252;2022-09-09T13:04:48;7.47;;;5.22;;
58242;SDS011;50118;53.232;8.252;2022-09-09T13:07:15;10.80;;;5.60;;
58242;SDS011;50118;53.232;8.252;2022-09-09T13:09:42;11.90;;;5.35;;
58242;SDS011;50118;53.232;8.252;2022-09-09T13:12:16;9.65;;;5.55;;
58242;SDS011;50118;53.232;8.252;2022-09-09T13:14:52;10.07;;;5.78;;
58242;SDS011;50118;53.232;8.252;2022-09-09T13:17:21;8.35;;;5.60;;
58242;SDS011;50118;53.232;8.252;2022-09-09T13:19:49;8.45;;;5.00;;
58242;SDS011;50118;53.232;8.252;2022-09-09T13:22:20;10.25;;;5.40;;
58242;SDS011;50118;53.232;8.252;2022-09-09T13:25:02;10.40;;;5.57;;
58242;SDS011;50118;53.232;8.252;2022-09-09T13:27:32;7.45;;;5.30;;
58242;SDS011;50118;53.232;8.252;2022-09-09T13:29:59;11.40;;;5.53;;
58242;SDS011;50118;53.232;8.252;2022-09-09T13:32:26;9.52;;;5.25;;
58242;SDS011;50118;53.232;8.252;2022-09-09T13:34:59;8.00;;;5.43;;
58242;SDS011;50118;53.232;8.252;2022-09-09T13:37:36;11.38;;;5.82;;
58242;SDS011;50118;53.232;8.252;2022-09-09T13:40:06;7.97;;;5.82;;
58242;SDS011;50118;53.232;8.252;2022-09-09T13:42:42;9.52;;;6.13;;
58242;SDS011;50118;53.232;8.252;2022-09-09T13:45:19;9.35;;;6.20;;
58242;SDS011;50118;53.232;8.252;2022-09-09T13:47:46;8.95;;;5.70;;
58242;SDS011;50118;53.232;8.252;2022-09-09T13:52:48;9.32;;;6.20;;
58242;SDS011;50118;53.232;8.252;2022-09-09T13:55:16;9.65;;;5.85;;
58242;SDS011;50118;53.232;8.252;2022-09-09T13:57:58;8.75;;;5.55;;
58242;SDS011;50118;53.232;8.252;2022-09-09T14:00:25;7.50;;;5.10;;
58242;SDS011;50118;53.232;8.252;2022-09-09T14:02:53;7.38;;;4.57;;
58242;SDS011;50118;53.232;8.252;2022-09-09T14:05:20;6.70;;;3.97;;
58242;SDS011;50118;53.232;8.252;2022-09-09T14:07:47;7.03;;;4.50;;
58242;SDS011;50118;53.232;8.252;2022-09-09T14:10:14;9.63;;;4.40;;
58242;SDS011;50118;53.232;8.252;2022-09-09T14:12:40;8.85;;;4.82;;
58242;SDS011;50118;53.232;8.252;2022-09-09T14:15:06;8.93;;;4.57;;
58242;SDS011;50118;53.232;8.252;2022-09-09T14:17:34;6.68;;;4.47;;
58242;SDS011;50118;53.232;8.252;2022-09-09T14:20:02;9.35;;;4.47;;
58242;SDS011;50118;53.232;8.252;2022-09-09T14:22:30;10.07;;;4.82;;
58242;SDS011;50118;53.232;8.252;2022-09-09T14:24:56;7.65;;;3.70;;
58242;SDS011;50118;53.232;8.252;2022-09-09T14:27:22;7.68;;;3.47;;
58242;SDS011;50118;53.232;8.252;2022-09-09T14:29:48;5.50;;;3.10;;
58242;SDS011;50118;53.232;8.252;2022-09-09T14:32:13;6.25;;;2.90;;
58242;SDS011;50118;53.232;8.252;2022-09-09T14:34:39;4.32;;;2.58;;
58242;SDS011;50118;53.232;8.252;2022-09-09T14:37:05;4.60;;;2.85;;
58242;SDS011;50118;53.232;8.252;2022-09-09T14:39:31;4.35;;;2.80;;
58242;SDS011;50118;53.232;8.252;2022-09-09T14:41:57;5.57;;;2.65;;
58242;SDS011;50118;53.232;8.252;2022-09-09T14:44:32;4.30;;;2.60;;
58242;SDS011;50118;53.232;8.252;2022-09-09T14:46:58;4.45;;;2.55;;
58242;SDS011;50118;53.232;8.252;2022-09-09T14:49:24;4.40;;;2.60;;
58242;SDS011;50118;53.232;8.252;2022-09-09T14:51:49;5.28;;;3.20;;
58242;SDS011;50118;53.232;8.252;2022-09-09T14:54:15;6.55;;;3.28;;
58242;SDS011;50118;53.232;8.252;2022-09-09T14:56:41;5.25;;;3.17;;
58242;SDS011;50118;53.232;8.252;2022-09-09T14:59:06;4.82;;;3.08;;
58242;SDS011;50118;53.232;8.252;2022-09-09T15:01:32;3.83;;;2.88;;
58242;SDS011;50118;53.232;8.252;2022-09-09T15:04:00;4.85;;;3.03;;
58242;SDS011;50118;53.232;8.252;2022-09-09T15:06:27;5.53;;;3.28;;
58242;SDS011;50118;53.232;8.252;2022-09-09T15:08:55;4.40;;;3.25;;
58242;SDS011;50118;53.232;8.252;2022-09-09T15:11:25;4.22;;;3.10;;
58242;SDS011;50118;53.232;8.252;2022-09-09T15:13:53;6.65;;;3.13;;
58242;SDS011;50118;53.232;8.252;2022-09-09T15:16:20;4.50;;;3.22;;
58242;SDS011;50118;53.232;8.252;2022-09-09T15:18:50;6.55;;;3.35;;
58242;SDS011;50118;53.232;8.252;2022-09-09T15:21:17;5.90;;;3.33;;
58242;SDS011;50118;53.232;8.252;2022-09-09T15:23:45;7.75;;;3.47;;
58242;SDS011;50118;53.232;8.252;2022-09-09T15:26:12;5.68;;;3.35;;
58242;SDS011;50118;53.232;8.252;2022-09-09T15:28:42;6.40;;;3.60;;
58242;SDS011;50118;53.232;8.252;2022-09-09T15:31:16;5.28;;;3.10;;
58242;SDS011;50118;53.232;8.252;2022-09-09T15:33:50;5.60;;;3.60;;
58242;SDS011;50118;53.232;8.252;2022-09-09T15:36:21;6.97;;;4.05;;
58242;SDS011;50118;53.232;8.252;2022-09-09T15:38:51;4.95;;;3.42;;
58242;SDS011;50118;53.232;8.252;2022-09-09T15:41:18;6.20;;;3.80;;
58242;SDS011;50118;53.232;8.252;2022-09-09T15:43:46;6.07;;;3.70;;
58242;SDS011;50118;53.232;8.252;2022-09-09T15:48:42;6.88;;;3.88;;
58242;SDS011;50118;53.232;8.252;2022-09-09T15:51:11;6.00;;;4.13;;
58242;SDS011;50118;53.232;8.252;2022-09-09T15:53:38;6.35;;;3.72;;
58242;SDS011;50118;53.232;8.252;2022-09-09T15:56:06;6.10;;;3.80;;
58242;SDS011;50118;53.232;8.252;2022-09-09T15:58:33;7.25;;;4.20;;
58242;SDS011;50118;53.232;8.252;2022-09-09T16:01:03;6.30;;;3.72;;
58242;SDS011;50118;53.232;8.252;2022-09-09T16:03:39;6.38;;;3.97;;
58242;SDS011;50118;53.232;8.252;2022-09-09T16:06:11;5.85;;;3.90;;
58242;SDS011;50118;53.232;8.252;2022-09-09T16:08:39;6.75;;;3.50;;
58242;SDS011;50118;53.232;8.252;2022-09-09T16:11:13;4.75;;;3.65;;
58242;SDS011;50118;53.232;8.252;2022-09-09T16:13:43;7.30;;;4.10;;
58242;SDS011;50118;53.232;8.252;2022-09-09T16:16:13;6.78;;;4.03;;
58242;SDS011;50118;53.232;8.252;2022-09-09T16:18:56;5.88;;;3.60;;
58242;SDS011;50118;53.232;8.252;2022-09-09T16:23:54;6.88;;;3.95;;
58242;SDS011;50118;53.232;8.252;2022-09-09T16:26:20;6.30;;;4.18;;
58242;SDS011;50118;53.232;8.252;2022-09-09T16:28:46;6.60;;;4.28;;
58242;SDS011;50118;53.232;8.252;2022-09-09T16:31:13;7.03;;;3.90;;
58242;SDS011;50118;53.232;8.252;2022-09-09T16:33:42;8.25;;;4.80;;
58242;SDS011;50118;53.232;8.252;2022-09-09T16:36:09;7.43;;;4.07;;
58242;SDS011;50118;53.232;8.252;2022-09-09T16:38:39;8.00;;;4.50;;
58242;SDS011;50118;53.232;8.252;2022-09-09T16:41:05;7.88;;;4.03;;
58242;SDS011;50118;53.232;8.252;2022-09-09T16:43:32;6.57;;;4.20;;
58242;SDS011;50118;53.232;8.252;2022-09-09T16:45:58;7.80;;;4.28;;
58242;SDS011;50118;53.232;8.252;2022-09-09T16:48:26;8.23;;;4.65;;
58242;SDS011;50118;53.232;8.252;2022-09-09T16:51:00;7.68;;;4.13;;
58242;SDS011;50118;53.232;8.252;2022-09-09T16:53:33;6.95;;;4.30;;
58242;SDS011;50118;53.232;8.252;2022-09-09T16:56:06;6.95;;;4.10;;
58242;SDS011;50118;53.232;8.252;2022-09-09T16:58:33;6.38;;;4.00;;
58242;SDS011;50118;53.232;8.252;2022-09-09T17:00:59;19.35;;;5.05;;
58242;SDS011;50118;53.232;8.252;2022-09-09T17:03:27;6.95;;;3.83;;
58242;SDS011;50118;53.232;8.252;2022-09-09T17:05:53;7.95;;;3.70;;
58242;SDS011;50118;53.232;8.252;2022-09-09T17:08:41;5.38;;;3.65;;
58242;SDS011;50118;53.232;8.252;2022-09-09T17:11:28;7.85;;;3.75;;
58242;SDS011;50118;53.232;8.252;2022-09-09T17:13:55;6.50;;;3.83;;
58242;SDS011;50118;53.232;8.252;2022-09-09T17:16:23;5.25;;;4.03;;
58242;SDS011;50118;53.232;8.252;2022-09-09T17:18:52;6.53;;;4.35;;
58242;SDS011;50118;53.232;8.252;2022-09-09T17:21:20;8.00;;;4.50;;
58242;SDS011;50118;53.232;8.252;2022-09-09T17:23:50;7.85;;;4.63;;
58242;SDS011;50118;53.232;8.252;2022-09-09T17:26:19;9.18;;;4.70;;
58242;SDS011;50118;53.232;8.252;2022-09-09T17:28:46;7.95;;;5.18;;
58242;SDS011;50118;53.232;8.252;2022-09-09T17:31:31;7.93;;;5.50;;
58242;SDS011;50118;53.232;8.252;2022-09-09T17:37:25;8.63;;;5.15;;
58242;SDS011;50118;53.232;8.252;2022-09-09T17:39:52;7.20;;;4.85;;
58242;SDS011;50118;53.232;8.252;2022-09-09T17:42:20;7.00;;;4.75;;
58242;SDS011;50118;53.232;8.252;2022-09-09T17:44:46;7.75;;;4.70;;
58242;SDS011;50118;53.232;8.252;2022-09-09T17:47:12;5.57;;;3.67;;
58242;SDS011;50118;53.232;8.252;2022-09-09T17:49:38;5.47;;;3.55;;